Terminal Aerodrome Forecast
Issued by NWS Wilmington, OH

Current Version | Previous Version | Text Only | Print | Product List | Glossary Off
Versions: 1 2 3 4 5 6 7 8 9 10 11 12 13 14 15 16 17 18 19 20 21

000
FTUS41 KILN 212000 AAA
TAFCMH
TAF AMD
KCMH 212007Z 2120/2218 22009KT P6SM -SHRA OVC012
      TEMPO 2120/2121 5SM -SHRA
     FM212300 20004KT P6SM BKN080
     FM220400 22003KT P6SM -SHRA VCTS BKN050CB
     FM220800 VRB03KT P6SM VCTS BKN040CB
     FM221200 19004KT P6SM BKN040=

USA.gov is the U.S. government's official web portal to all federal, state and local government web resources and services.